Time;durP1;ratioP1;P1;durP2;ratioP2;P2;SDS_P1;SDS_P2;PMS_P1;PMS_P2;Temp;Humidity;BMP_temperature;BMP_pressure;BME280_temperature;BME280_humidity;BME280_pressure;Samples;Min_cycle;Max_cycle;Signal;HPM_P1;HPM_P2
2023/07/01 00:01:19;;;;;;;29.30;14.68;;;;;;;;;;4919568;29;20495;-79
2023/07/01 00:03:44;;;;;;;36.53;15.90;;;;;;;;;;4922424;29;20032;-79
2023/07/01 00:06:10;;;;;;;34.28;16.00;;;;;;;;;;4919473;29;20040;-79
2023/07/01 00:08:35;;;;;;;32.35;16.90;;;;;;;;;;4918844;29;20352;-79
2023/07/01 00:11:00;;;;;;;44.22;19.05;;;;;;;;;;4918762;29;20036;-79
2023/07/01 00:13:27;;;;;;;40.13;18.20;;;;;;;;;;4918907;29;20035;-79
2023/07/01 00:15:56;;;;;;;46.33;19.55;;;;;;;;;;4919588;29;20064;-78
2023/07/01 00:18:22;;;;;;;45.17;20.13;;;;;;;;;;4919184;29;20024;-79
2023/07/01 00:20:47;;;;;;;44.50;21.35;;;;;;;;;;4919377;29;20395;-79
2023/07/01 00:23:12;;;;;;;42.22;20.30;;;;;;;;;;4918506;29;20028;-79
2023/07/01 00:25:38;;;;;;;43.95;20.63;;;;;;;;;;4917212;29;20072;-79
2023/07/01 00:28:03;;;;;;;49.85;21.73;;;;;;;;;;4918302;29;20126;-79
2023/07/01 00:30:28;;;;;;;43.05;20.90;;;;;;;;;;4918009;29;20028;-79
2023/07/01 00:32:54;;;;;;;52.03;22.50;;;;;;;;;;4918886;29;20091;-79
2023/07/01 00:35:19;;;;;;;51.53;22.40;;;;;;;;;;4918353;29;20047;-79
2023/07/01 00:37:44;;;;;;;55.67;22.08;;;;;;;;;;4925300;29;20468;-79
2023/07/01 00:40:10;;;;;;;49.08;21.52;;;;;;;;;;4918069;29;20047;-79
2023/07/01 00:42:35;;;;;;;50.55;21.35;;;;;;;;;;4916687;29;20043;-79
2023/07/01 00:45:01;;;;;;;49.53;22.60;;;;;;;;;;4918346;29;20024;-79
2023/07/01 00:47:26;;;;;;;48.40;22.58;;;;;;;;;;4919188;29;20517;-79
2023/07/01 00:49:52;;;;;;;48.03;23.10;;;;;;;;;;4918755;29;20048;-79
2023/07/01 00:52:18;;;;;;;53.55;22.75;;;;;;;;;;4917973;29;20087;-78
2023/07/01 00:54:43;;;;;;;58.83;23.70;;;;;;;;;;4917195;29;20047;-79
2023/07/01 00:57:09;;;;;;;46.05;20.60;;;;;;;;;;4918188;29;20028;-79
2023/07/01 00:59:34;;;;;;;45.90;21.85;;;;;;;;;;4917140;29;20028;-79
2023/07/01 01:02:04;;;;;;;45.17;20.35;;;;;;;;;;4917972;29;20475;-78
2023/07/01 01:04:36;;;;;;;41.05;20.92;;;;;;;;;;4917398;29;20040;-78
2023/07/01 01:07:06;;;;;;;38.83;18.30;;;;;;;;;;4914786;29;20036;-79
2023/07/01 01:09:38;;;;;;;40.17;20.23;;;;;;;;;;4917036;29;20044;-79
2023/07/01 01:12:06;;;;;;;34.70;18.95;;;;;;;;;;4918033;29;20395;-79
2023/07/01 01:14:33;;;;;;;36.17;17.17;;;;;;;;;;4918228;29;20029;-79
2023/07/01 01:17:04;;;;;;;42.33;19.90;;;;;;;;;;4918608;29;20048;-78
2023/07/01 01:19:44;;;;;;;40.97;18.88;;;;;;;;;;4918423;29;20054;-78
2023/07/01 01:22:15;;;;;;;39.83;19.00;;;;;;;;;;4918009;29;20041;-78
2023/07/01 01:24:44;;;;;;;37.03;18.92;;;;;;;;;;4917205;29;20458;-79
2023/07/01 01:27:12;;;;;;;40.85;18.40;;;;;;;;;;4923693;29;20067;-79
2023/07/01 01:29:38;;;;;;;33.88;16.98;;;;;;;;;;4917913;29;20502;-78
2023/07/01 01:32:07;;;;;;;35.33;17.35;;;;;;;;;;4917461;29;20044;-78
2023/07/01 01:34:32;;;;;;;31.25;16.52;;;;;;;;;;4917929;29;20589;-79
2023/07/01 01:37:01;;;;;;;33.45;15.95;;;;;;;;;;4917058;29;20040;-78
2023/07/01 01:39:33;;;;;;;34.28;17.23;;;;;;;;;;4917918;29;20036;-79
2023/07/01 01:42:13;;;;;;;35.78;17.27;;;;;;;;;;4911878;29;20032;-79
2023/07/01 01:44:47;;;;;;;31.70;15.00;;;;;;;;;;4917964;29;20033;-79
2023/07/01 01:47:17;;;;;;;27.55;14.15;;;;;;;;;;4916861;29;20050;-79
2023/07/01 01:49:44;;;;;;;26.65;13.10;;;;;;;;;;4918261;29;20036;-79
2023/07/01 01:52:14;;;;;;;23.33;12.75;;;;;;;;;;4918841;29;20507;-79
2023/07/01 01:54:40;;;;;;;25.85;13.00;;;;;;;;;;4920566;29;20036;-79
2023/07/01 01:57:06;;;;;;;20.65;11.05;;;;;;;;;;4923977;29;20036;-79
2023/07/01 01:59:31;;;;;;;19.02;10.77;;;;;;;;;;4918647;29;20507;-78
2023/07/01 02:01:57;;;;;;;18.17;10.68;;;;;;;;;;4918282;29;20063;-78
2023/07/01 02:04:22;;;;;;;20.33;10.57;;;;;;;;;;4918244;29;20040;-78
2023/07/01 02:06:47;;;;;;;17.45;9.63;;;;;;;;;;4919617;29;20032;-79
2023/07/01 02:09:13;;;;;;;19.50;11.13;;;;;;;;;;4921787;29;20484;-79
2023/07/01 02:11:38;;;;;;;15.55;9.73;;;;;;;;;;4918907;29;20036;-79
2023/07/01 02:14:03;;;;;;;21.08;10.57;;;;;;;;;;4918228;29;20043;-78
2023/07/01 02:16:28;;;;;;;23.73;11.43;;;;;;;;;;4918536;29;20111;-78
2023/07/01 02:18:54;;;;;;;18.13;10.95;;;;;;;;;;4918316;29;20064;-78
2023/07/01 02:21:19;;;;;;;21.08;11.35;;;;;;;;;;4918521;29;20032;-79
2023/07/01 02:23:44;;;;;;;20.70;10.95;;;;;;;;;;4918293;29;20471;-78
2023/07/01 02:26:10;;;;;;;17.80;10.25;;;;;;;;;;4921384;29;20032;-78
2023/07/01 02:28:35;;;;;;;23.08;10.50;;;;;;;;;;4920199;29;20507;-78
2023/07/01 02:31:01;;;;;;;19.98;10.35;;;;;;;;;;4918562;29;20047;-78
2023/07/01 02:33:26;;;;;;;17.80;9.93;;;;;;;;;;4916568;29;20040;-78
2023/07/01 02:35:51;;;;;;;19.10;10.13;;;;;;;;;;4918382;29;20032;-78
2023/07/01 02:38:16;;;;;;;19.85;9.77;;;;;;;;;;4918163;29;20363;-78
2023/07/01 02:40:42;;;;;;;18.55;8.77;;;;;;;;;;4919962;29;20036;-79
2023/07/01 02:43:07;;;;;;;19.27;11.10;;;;;;;;;;4919815;29;20032;-79
2023/07/01 02:45:32;;;;;;;20.52;9.15;;;;;;;;;;4919593;29;20024;-79
2023/07/01 02:47:58;;;;;;;21.08;9.90;;;;;;;;;;4919896;29;20103;-79
2023/07/01 02:50:23;;;;;;;17.80;8.05;;;;;;;;;;4919754;29;20525;-79
2023/07/01 02:52:48;;;;;;;18.25;9.20;;;;;;;;;;4918293;29;20038;-79
2023/07/01 02:55:14;;;;;;;12.85;7.22;;;;;;;;;;4923596;29;20081;-79
2023/07/01 02:57:39;;;;;;;13.45;6.93;;;;;;;;;;4918418;29;20119;-78
2023/07/01 03:00:10;;;;;;;11.80;7.35;;;;;;;;;;4919678;29;20058;-78
2023/07/01 03:02:36;;;;;;;10.13;6.22;;;;;;;;;;4918280;29;20027;-78
2023/07/01 03:05:01;;;;;;;8.30;5.90;;;;;;;;;;4918767;29;20047;-78
2023/07/01 03:07:26;;;;;;;8.45;5.72;;;;;;;;;;4920256;29;20032;-78
2023/07/01 03:09:52;;;;;;;8.68;5.63;;;;;;;;;;4922522;29;20044;-79
2023/07/01 03:12:17;;;;;;;12.75;5.97;;;;;;;;;;4923824;29;20090;-77
2023/07/01 03:14:43;;;;;;;7.28;5.50;;;;;;;;;;4925744;29;20020;-76
2023/07/01 03:17:08;;;;;;;6.45;4.82;;;;;;;;;;4918033;29;20541;-77
2023/07/01 03:19:34;;;;;;;9.13;5.82;;;;;;;;;;4916174;29;20036;-77
2023/07/01 03:21:59;;;;;;;8.75;5.55;;;;;;;;;;4918296;29;20041;-77
2023/07/01 03:24:33;;;;;;;8.75;5.22;;;;;;;;;;4918118;29;20063;-77
2023/07/01 03:27:00;;;;;;;11.82;6.43;;;;;;;;;;4922113;29;20067;-77
2023/07/01 03:29:25;;;;;;;7.68;5.07;;;;;;;;;;4921922;29;20103;-76
2023/07/01 03:31:51;;;;;;;7.20;5.38;;;;;;;;;;4916449;29;20467;-77
2023/07/01 03:34:16;;;;;;;10.10;6.05;;;;;;;;;;4916564;29;20472;-77
2023/07/01 03:36:41;;;;;;;8.70;5.65;;;;;;;;;;4918693;29;20051;-77
2023/07/01 03:39:06;;;;;;;8.50;5.70;;;;;;;;;;4917902;29;20569;-77
2023/07/01 03:41:32;;;;;;;9.02;5.22;;;;;;;;;;4918242;29;20146;-77
2023/07/01 03:43:57;;;;;;;8.65;5.70;;;;;;;;;;4920105;29;20020;-77
2023/07/01 03:46:22;;;;;;;8.10;5.78;;;;;;;;;;4919121;29;20043;-77
2023/07/01 03:48:48;;;;;;;9.40;6.03;;;;;;;;;;4919724;29;20032;-78
2023/07/01 03:51:13;;;;;;;9.35;5.80;;;;;;;;;;4920201;29;20115;-78
2023/07/01 03:53:38;;;;;;;7.53;5.40;;;;;;;;;;4918577;29;20044;-77
2023/07/01 03:56:04;;;;;;;7.65;5.45;;;;;;;;;;4919351;29;20032;-78
2023/07/01 03:58:29;;;;;;;6.57;5.28;;;;;;;;;;4916182;29;20048;-77
2023/07/01 04:00:54;;;;;;;9.00;5.85;;;;;;;;;;4916843;29;20039;-77
2023/07/01 04:03:23;;;;;;;8.80;5.72;;;;;;;;;;4923018;29;20017;-77
2023/07/01 04:05:49;;;;;;;10.48;5.95;;;;;;;;;;4919807;29;20059;-77
2023/07/01 04:08:15;;;;;;;7.85;5.03;;;;;;;;;;4929486;29;20452;-77
2023/07/01 04:10:40;;;;;;;7.85;5.70;;;;;;;;;;4915981;29;20036;-77
2023/07/01 04:13:05;;;;;;;7.35;4.85;;;;;;;;;;4914757;29;20447;-77
2023/07/01 04:15:31;;;;;;;8.23;5.30;;;;;;;;;;4915871;29;20032;-77
2023/07/01 04:17:56;;;;;;;7.65;5.05;;;;;;;;;;4915652;29;20506;-77
2023/07/01 04:20:21;;;;;;;7.68;5.40;;;;;;;;;;4915332;29;20032;-77
2023/07/01 04:22:47;;;;;;;6.68;5.07;;;;;;;;;;4918523;29;20429;-77
2023/07/01 04:25:13;;;;;;;8.18;5.43;;;;;;;;;;4920667;29;20047;-77
2023/07/01 04:27:38;;;;;;;15.27;5.65;;;;;;;;;;4923204;29;20176;-77
2023/07/01 04:30:08;;;;;;;7.95;4.93;;;;;;;;;;4915391;29;20111;-77
2023/07/01 04:32:33;;;;;;;6.57;4.82;;;;;;;;;;4915671;29;20106;-77
2023/07/01 04:35:00;;;;;;;8.82;5.78;;;;;;;;;;4915688;29;20064;-77
2023/07/01 04:37:25;;;;;;;7.72;4.78;;;;;;;;;;4915352;29;20036;-77
2023/07/01 04:39:50;;;;;;;6.47;5.25;;;;;;;;;;4915461;29;20456;-77
2023/07/01 04:42:16;;;;;;;9.77;4.82;;;;;;;;;;4916468;29;20111;-77
2023/07/01 04:44:41;;;;;;;9.90;6.25;;;;;;;;;;4918037;29;20020;-77
2023/07/01 04:47:06;;;;;;;6.88;5.28;;;;;;;;;;4914984;29;20032;-77
2023/07/01 04:49:32;;;;;;;6.78;5.05;;;;;;;;;;4914865;29;20621;-77
2023/07/01 04:51:57;;;;;;;9.23;5.65;;;;;;;;;;4914846;29;20052;-77
2023/07/01 04:54:22;;;;;;;8.15;5.60;;;;;;;;;;4913584;29;20447;-77
2023/07/01 04:56:48;;;;;;;7.45;5.15;;;;;;;;;;4915260;29;20036;-77
2023/07/01 04:59:13;;;;;;;6.32;5.15;;;;;;;;;;4914088;29;20457;-77
2023/07/01 05:01:38;;;;;;;7.28;4.63;;;;;;;;;;4913852;29;20032;-77
2023/07/01 05:04:04;;;;;;;8.77;4.88;;;;;;;;;;4915617;29;20028;-77
2023/07/01 05:06:29;;;;;;;8.30;5.25;;;;;;;;;;4915597;29;20394;-77
2023/07/01 05:08:54;;;;;;;6.35;4.88;;;;;;;;;;4915391;29;20031;-77
2023/07/01 05:11:20;;;;;;;5.70;4.57;;;;;;;;;;4915381;29;20048;-77
2023/07/01 05:13:46;;;;;;;8.13;4.85;;;;;;;;;;4915349;29;20076;-77
2023/07/01 05:16:11;;;;;;;6.85;4.63;;;;;;;;;;4914908;29;20466;-77
2023/07/01 05:18:37;;;;;;;8.27;4.72;;;;;;;;;;4914769;29;20119;-78
2023/07/01 05:21:02;;;;;;;7.25;4.65;;;;;;;;;;4917187;29;20103;-77
2023/07/01 05:23:28;;;;;;;7.72;4.97;;;;;;;;;;4917147;29;20380;-77
2023/07/01 05:25:53;;;;;;;6.35;4.68;;;;;;;;;;4918250;29;20047;-76
2023/07/01 05:28:18;;;;;;;6.43;4.90;;;;;;;;;;4918529;29;20032;-77
2023/07/01 05:30:43;;;;;;;5.82;4.72;;;;;;;;;;4920634;29;20039;-77
2023/07/01 05:33:10;;;;;;;7.47;4.65;;;;;;;;;;4919471;29;20403;-77
2023/07/01 05:35:36;;;;;;;5.47;4.43;;;;;;;;;;4921323;29;20313;-77
2023/07/01 05:38:12;;;;;;;6.43;4.45;;;;;;;;;;4920613;29;20055;-77
2023/07/01 05:40:38;;;;;;;5.32;4.80;;;;;;;;;;4920228;29;20047;-77
2023/07/01 05:43:03;;;;;;;7.07;4.28;;;;;;;;;;4920397;29;20100;-77
2023/07/01 05:45:29;;;;;;;5.70;4.70;;;;;;;;;;4920001;29;20041;-76
2023/07/01 05:47:54;;;;;;;4.90;4.15;;;;;;;;;;4919325;29;20114;-77
2023/07/01 05:50:20;;;;;;;10.25;4.95;;;;;;;;;;4923014;29;20079;-79
2023/07/01 05:52:45;;;;;;;4.82;3.95;;;;;;;;;;4922820;29;20507;-78
2023/07/01 05:55:10;;;;;;;6.18;4.38;;;;;;;;;;4921781;29;20037;-78
2023/07/01 05:57:36;;;;;;;6.82;4.30;;;;;;;;;;4923657;29;20036;-78
2023/07/01 06:00:04;;;;;;;5.30;4.10;;;;;;;;;;4922552;29;20032;-78
2023/07/01 06:02:29;;;;;;;5.75;4.10;;;;;;;;;;4923960;29;20079;-78
2023/07/01 06:04:54;;;;;;;4.28;3.65;;;;;;;;;;4922376;29;20039;-78
2023/07/01 06:07:20;;;;;;;4.82;4.10;;;;;;;;;;4921902;29;20048;-80
2023/07/01 06:09:49;;;;;;;3.70;3.40;;;;;;;;;;4921996;29;20029;-78
2023/07/01 06:12:14;;;;;;;4.10;3.50;;;;;;;;;;4923584;29;20156;-78
2023/07/01 06:14:39;;;;;;;3.70;3.17;;;;;;;;;;4924354;29;20148;-78
2023/07/01 06:17:05;;;;;;;3.70;3.40;;;;;;;;;;4921826;29;20032;-78
2023/07/01 06:19:31;;;;;;;4.13;3.35;;;;;;;;;;4924376;29;20036;-77
2023/07/01 06:21:56;;;;;;;4.88;3.55;;;;;;;;;;4922737;29;20043;-78
2023/07/01 06:24:21;;;;;;;5.13;3.45;;;;;;;;;;4924920;29;20031;-78
2023/07/01 06:26:46;;;;;;;4.15;3.45;;;;;;;;;;4923608;29;20091;-79
2023/07/01 06:29:12;;;;;;;4.03;3.40;;;;;;;;;;4922969;29;20135;-78
2023/07/01 06:31:37;;;;;;;6.75;3.40;;;;;;;;;;4923590;29;20047;-77
2023/07/01 06:34:10;;;;;;;3.28;2.95;;;;;;;;;;4924455;29;20095;-78
2023/07/01 06:36:36;;;;;;;3.67;3.03;;;;;;;;;;4921287;29;20518;-79
2023/07/01 06:39:01;;;;;;;6.50;3.50;;;;;;;;;;4924318;29;20032;-76
2023/07/01 06:41:26;;;;;;;3.83;3.20;;;;;;;;;;4922545;29;20040;-78
2023/07/01 06:43:52;;;;;;;3.50;3.10;;;;;;;;;;4922481;29;20043;-77
2023/07/01 06:46:19;;;;;;;3.03;2.83;;;;;;;;;;4921692;29;20032;-78
2023/07/01 06:48:44;;;;;;;3.65;3.03;;;;;;;;;;4923404;29;20032;-78
2023/07/01 06:51:10;;;;;;;3.70;3.40;;;;;;;;;;4922438;29;20132;-79
2023/07/01 06:53:38;;;;;;;3.78;3.05;;;;;;;;;;4922797;29;20039;-78
2023/07/01 06:56:04;;;;;;;4.15;3.30;;;;;;;;;;4921170;29;20048;-79
2023/07/01 06:58:29;;;;;;;3.15;2.85;;;;;;;;;;4923601;29;20028;-78
2023/07/01 07:00:54;;;;;;;4.07;2.85;;;;;;;;;;4922532;29;20039;-76
2023/07/01 07:03:19;;;;;;;7.53;3.25;;;;;;;;;;4920627;29;20113;-77
2023/07/01 07:05:45;;;;;;;3.70;3.30;;;;;;;;;;4922917;29;20060;-77
2023/07/01 07:08:10;;;;;;;3.72;3.33;;;;;;;;;;4923242;29;20036;-79
2023/07/01 07:10:35;;;;;;;3.20;2.90;;;;;;;;;;4921755;29;20033;-79
2023/07/01 07:13:01;;;;;;;4.50;3.13;;;;;;;;;;4926123;29;20135;-78
2023/07/01 07:15:26;;;;;;;3.63;2.80;;;;;;;;;;4926403;29;20039;-79
2023/07/01 07:17:51;;;;;;;3.85;3.10;;;;;;;;;;4926021;29;20043;-78
2023/07/01 07:20:17;;;;;;;3.30;3.00;;;;;;;;;;4925622;29;20040;-79
2023/07/01 07:22:43;;;;;;;3.28;2.90;;;;;;;;;;4927036;29;20044;-80
2023/07/01 07:25:16;;;;;;;9.25;2.72;;;;;;;;;;4926652;29;20101;-79
2023/07/01 07:27:43;;;;;;;3.33;2.90;;;;;;;;;;4924615;29;20028;-80
2023/07/01 07:30:08;;;;;;;3.05;2.60;;;;;;;;;;4926193;29;20664;-80
2023/07/01 07:32:34;;;;;;;4.90;3.17;;;;;;;;;;4924795;29;20024;-80
2023/07/01 07:34:59;;;;;;;4.05;3.00;;;;;;;;;;4923370;29;20067;-80
2023/07/01 07:37:24;;;;;;;5.15;2.55;;;;;;;;;;4924949;29;20468;-78
2023/07/01 07:39:50;;;;;;;4.32;2.80;;;;;;;;;;4922819;29;20032;-79
2023/07/01 07:42:15;;;;;;;3.35;2.75;;;;;;;;;;4921717;29;20125;-79
2023/07/01 07:44:42;;;;;;;5.25;2.60;;;;;;;;;;4923515;29;20091;-79
2023/07/01 07:47:07;;;;;;;3.08;2.78;;;;;;;;;;4921823;29;20036;-78
2023/07/01 07:49:33;;;;;;;3.97;2.78;;;;;;;;;;4922052;29;20047;-76
2023/07/01 07:52:00;;;;;;;7.93;2.92;;;;;;;;;;4922859;29;20036;-80
2023/07/01 07:54:26;;;;;;;5.00;2.70;;;;;;;;;;4922229;29;20403;-79
2023/07/01 07:56:58;;;;;;;3.90;2.67;;;;;;;;;;4922540;29;20030;-78
2023/07/01 07:59:23;;;;;;;4.88;2.67;;;;;;;;;;4922674;29;20036;-79
2023/07/01 08:01:49;;;;;;;4.28;2.88;;;;;;;;;;4922701;29;20088;-79
2023/07/01 08:04:15;;;;;;;5.32;2.92;;;;;;;;;;4922651;29;20111;-76
2023/07/01 08:06:40;;;;;;;3.08;2.60;;;;;;;;;;4922579;29;20160;-77
2023/07/01 08:09:05;;;;;;;3.08;2.78;;;;;;;;;;4921010;29;20052;-79
2023/07/01 08:11:31;;;;;;;5.15;2.50;;;;;;;;;;4922123;29;20024;-78
2023/07/01 08:13:56;;;;;;;3.58;3.00;;;;;;;;;;4922461;29;20036;-77
2023/07/01 08:16:21;;;;;;;3.33;2.53;;;;;;;;;;4921718;29;20036;-79
2023/07/01 08:18:47;;;;;;;2.75;2.55;;;;;;;;;;4922397;29;20529;-79
2023/07/01 08:21:13;;;;;;;3.03;2.40;;;;;;;;;;4920893;29;20092;-80
2023/07/01 08:23:38;;;;;;;2.90;2.42;;;;;;;;;;4921764;29;20395;-79
2023/07/01 08:26:03;;;;;;;3.45;2.80;;;;;;;;;;4921258;29;20040;-78
2023/07/01 08:28:31;;;;;;;3.47;2.67;;;;;;;;;;4922191;29;20034;-80
2023/07/01 08:30:58;;;;;;;2.63;2.15;;;;;;;;;;4920731;29;20150;-80
2023/07/01 08:33:23;;;;;;;2.67;2.10;;;;;;;;;;4920331;29;20056;-80
2023/07/01 08:35:48;;;;;;;2.72;2.20;;;;;;;;;;4921709;29;20024;-80
2023/07/01 08:38:14;;;;;;;3.65;2.30;;;;;;;;;;4921890;29;20096;-77
2023/07/01 08:40:40;;;;;;;3.60;2.70;;;;;;;;;;4920330;29;20028;-80
2023/07/01 08:43:09;;;;;;;3.67;2.28;;;;;;;;;;4922581;29;20060;-80
2023/07/01 08:45:35;;;;;;;4.43;2.88;;;;;;;;;;4919586;29;20043;-80
2023/07/01 08:48:04;;;;;;;2.78;2.50;;;;;;;;;;4920410;29;20031;-77
2023/07/01 08:50:56;;;;;;;3.55;2.33;;;;;;;;;;4920026;29;20180;-79
2023/07/01 08:53:22;;;;;;;12.07;2.88;;;;;;;;;;4920040;29;20044;-80
2023/07/01 08:55:47;;;;;;;4.22;2.45;;;;;;;;;;4921080;29;20435;-78
2023/07/01 08:58:14;;;;;;;2.42;2.30;;;;;;;;;;4919561;29;20400;-80
2023/07/01 09:00:40;;;;;;;3.13;2.70;;;;;;;;;;4919388;29;20056;-79
2023/07/01 09:03:06;;;;;;;2.20;2.10;;;;;;;;;;4921338;29;20024;-80
2023/07/01 09:05:32;;;;;;;2.92;2.53;;;;;;;;;;4921754;29;20035;-78
2023/07/01 09:07:57;;;;;;;4.18;2.58;;;;;;;;;;4921781;29;20036;-77
2023/07/01 09:10:22;;;;;;;3.10;2.28;;;;;;;;;;4919862;29;20068;-79
2023/07/01 09:12:48;;;;;;;5.07;2.58;;;;;;;;;;4919964;29;20583;-79
2023/07/01 09:15:13;;;;;;;3.13;2.42;;;;;;;;;;4920347;29;20028;-80
2023/07/01 09:17:40;;;;;;;3.33;2.20;;;;;;;;;;4920405;29;20091;-79
2023/07/01 09:20:11;;;;;;;3.05;2.40;;;;;;;;;;4919094;29;20040;-79
2023/07/01 09:22:39;;;;;;;2.83;2.50;;;;;;;;;;4918460;29;20036;-78
2023/07/01 09:25:04;;;;;;;8.23;2.70;;;;;;;;;;4919579;29;20036;-77
2023/07/01 09:27:46;;;;;;;2.63;2.42;;;;;;;;;;4919630;29;20124;-79
2023/07/01 09:30:20;;;;;;;5.75;2.85;;;;;;;;;;4920231;29;20024;-78
2023/07/01 09:32:45;;;;;;;3.40;2.78;;;;;;;;;;4919529;29;20040;-78
2023/07/01 09:35:11;;;;;;;2.92;2.45;;;;;;;;;;4919043;29;20036;-79
2023/07/01 09:37:37;;;;;;;2.53;2.33;;;;;;;;;;4918144;29;20063;-78
2023/07/01 09:40:17;;;;;;;3.60;2.75;;;;;;;;;;4919353;29;20055;-79
2023/07/01 09:42:53;;;;;;;2.60;2.40;;;;;;;;;;4917640;29;20419;-78
2023/07/01 09:45:19;;;;;;;2.58;2.38;;;;;;;;;;4917876;29;20430;-79
2023/07/01 09:47:48;;;;;;;2.80;2.17;;;;;;;;;;4919939;29;20052;-78
2023/07/01 09:50:21;;;;;;;3.42;2.38;;;;;;;;;;4919609;29;20050;-78
2023/07/01 09:52:46;;;;;;;3.72;2.38;;;;;;;;;;4919263;29;20047;-79
2023/07/01 09:55:12;;;;;;;2.53;2.30;;;;;;;;;;4918168;29;20041;-77
2023/07/01 09:57:38;;;;;;;2.83;2.50;;;;;;;;;;4919482;29;20039;-81
2023/07/01 10:00:06;;;;;;;2.95;2.00;;;;;;;;;;4918509;29;20024;-79
2023/07/01 10:02:32;;;;;;;2.63;2.00;;;;;;;;;;4920218;29;20028;-78
2023/07/01 10:04:57;;;;;;;2.58;1.98;;;;;;;;;;4918098;29;20115;-78
2023/07/01 10:07:23;;;;;;;7.18;2.03;;;;;;;;;;4918468;29;20502;-79
2023/07/01 10:09:51;;;;;;;3.38;2.33;;;;;;;;;;4919580;29;20036;-79
2023/07/01 10:12:18;;;;;;;2.70;2.17;;;;;;;;;;4923479;29;20389;-81
2023/07/01 10:14:50;;;;;;;2.38;2.05;;;;;;;;;;4924971;29;20024;-81
2023/07/01 10:17:19;;;;;;;2.92;2.15;;;;;;;;;;4923495;29;20044;-81
2023/07/01 10:19:48;;;;;;;2.10;1.90;;;;;;;;;;4923539;29;20032;-82
2023/07/01 10:22:26;;;;;;;3.95;2.47;;;;;;;;;;4921674;29;20119;-77
2023/07/01 10:25:03;;;;;;;2.55;2.35;;;;;;;;;;4921040;29;20511;-78
2023/07/01 10:27:40;;;;;;;3.67;2.55;;;;;;;;;;4921521;29;20440;-78
2023/07/01 10:30:08;;;;;;;2.50;2.30;;;;;;;;;;4922651;29;20498;-77
2023/07/01 10:32:33;;;;;;;3.50;2.20;;;;;;;;;;4922647;29;20066;-79
2023/07/01 10:34:59;;;;;;;3.78;2.35;;;;;;;;;;4921984;29;20036;-79
2023/07/01 10:37:26;;;;;;;2.40;2.20;;;;;;;;;;4921512;29;20058;-77
2023/07/01 10:39:53;;;;;;;2.70;2.00;;;;;;;;;;4920759;29;20036;-79
2023/07/01 10:42:32;;;;;;;4.25;2.50;;;;;;;;;;4920805;29;20039;-79
2023/07/01 10:45:12;;;;;;;4.05;2.20;;;;;;;;;;4921236;29;20115;-79
2023/07/01 10:47:50;;;;;;;2.50;2.30;;;;;;;;;;4922313;29;20399;-78
2023/07/01 10:50:17;;;;;;;4.88;2.30;;;;;;;;;;4921928;29;20511;-79
2023/07/01 10:52:55;;;;;;;3.13;2.53;;;;;;;;;;4920492;29;20055;-79
2023/07/01 10:55:46;;;;;;;6.43;2.33;;;;;;;;;;4920432;29;20036;-79
2023/07/01 10:58:24;;;;;;;2.35;2.10;;;;;;;;;;4920425;29;20491;-80
2023/07/01 11:00:57;;;;;;;3.15;2.30;;;;;;;;;;4920955;29;20043;-78
2023/07/01 11:03:34;;;;;;;2.85;2.42;;;;;;;;;;4921068;29;20348;-79
2023/07/01 11:06:01;;;;;;;5.28;2.20;;;;;;;;;;4921794;29;20350;-78
2023/07/01 11:08:28;;;;;;;2.10;2.00;;;;;;;;;;4921487;29;20040;-79
2023/07/01 11:10:53;;;;;;;5.72;2.13;;;;;;;;;;4922608;29;20076;-79
2023/07/01 11:13:19;;;;;;;6.05;2.20;;;;;;;;;;4922164;29;20092;-79
2023/07/01 11:16:10;;;;;;;3.03;2.50;;;;;;;;;;4920651;29;20091;-78
2023/07/01 11:18:47;;;;;;;3.95;2.20;;;;;;;;;;4947800;23;20036;-77
2023/07/01 11:21:17;;;;;;;3.80;2.17;;;;;;;;;;4952173;28;20111;-76
2023/07/01 11:23:50;;;;;;;3.25;2.30;;;;;;;;;;4930156;28;20056;-77
2023/07/01 11:26:26;;;;;;;3.13;2.67;;;;;;;;;;4953062;28;20401;-78
2023/07/01 11:28:52;;;;;;;2.80;2.20;;;;;;;;;;4951619;28;20047;-77
2023/07/01 11:31:22;;;;;;;3.00;2.70;;;;;;;;;;4933901;28;20086;-78
2023/07/01 11:33:49;;;;;;;2.17;2.00;;;;;;;;;;4945731;28;20069;-77
2023/07/01 11:36:17;;;;;;;2.38;2.15;;;;;;;;;;4939309;28;20039;-77
2023/07/01 11:38:45;;;;;;;3.67;2.45;;;;;;;;;;4938705;28;20422;-76
2023/07/01 11:41:28;;;;;;;2.47;2.22;;;;;;;;;;4918191;29;20036;-77
2023/07/01 11:43:54;;;;;;;2.50;2.30;;;;;;;;;;4928503;29;20027;-77
2023/07/01 11:46:33;;;;;;;2.70;2.20;;;;;;;;;;4927403;29;20186;-78
2023/07/01 11:49:22;;;;;;;4.15;3.47;;;;;;;;;;4932594;28;20043;-77
2023/07/01 11:51:49;;;;;;;2.72;2.35;;;;;;;;;;4930302;29;20044;-77
2023/07/01 11:54:16;;;;;;;4.63;1.92;;;;;;;;;;4920664;29;20079;-78
2023/07/01 11:56:43;;;;;;;2.83;2.20;;;;;;;;;;4935870;29;20371;-78
2023/07/01 11:59:09;;;;;;;2.30;2.10;;;;;;;;;;4934719;28;20036;-77
2023/07/01 12:01:37;;;;;;;2.60;2.40;;;;;;;;;;4934948;29;20050;-77
2023/07/01 12:04:14;;;;;;;5.10;2.38;;;;;;;;;;4923987;28;20055;-76
2023/07/01 12:06:39;;;;;;;2.50;2.30;;;;;;;;;;4925856;29;20036;-79
2023/07/01 12:09:08;;;;;;;4.22;2.60;;;;;;;;;;4935948;29;20046;-76
2023/07/01 12:11:43;;;;;;;4.28;2.30;;;;;;;;;;4913370;29;20103;-77
2023/07/01 12:14:19;;;;;;;2.92;2.47;;;;;;;;;;4913670;29;20050;-78
2023/07/01 12:16:47;;;;;;;2.53;2.33;;;;;;;;;;4916510;29;20044;-78
2023/07/01 12:19:13;;;;;;;2.35;2.15;;;;;;;;;;4912940;29;20503;-78
2023/07/01 12:21:40;;;;;;;2.42;2.22;;;;;;;;;;4917264;29;20070;-78
2023/07/01 12:24:21;;;;;;;2.30;2.10;;;;;;;;;;4913462;28;20024;-77
2023/07/01 12:26:54;;;;;;;2.67;2.45;;;;;;;;;;4916345;29;20099;-77
2023/07/01 12:29:21;;;;;;;2.42;2.22;;;;;;;;;;4915661;29;20040;-77
2023/07/01 12:31:47;;;;;;;2.10;2.00;;;;;;;;;;4929947;29;20047;-77
2023/07/01 12:34:13;;;;;;;2.45;2.25;;;;;;;;;;4940426;28;20036;-76
2023/07/01 12:36:38;;;;;;;2.13;1.92;;;;;;;;;;4915871;29;20040;-77
2023/07/01 12:39:05;;;;;;;2.58;2.38;;;;;;;;;;4918673;28;20462;-77
2023/07/01 12:41:30;;;;;;;2.15;2.05;;;;;;;;;;4954803;28;20027;-78
2023/07/01 12:43:57;;;;;;;2.97;1.98;;;;;;;;;;4937759;28;20541;-77
2023/07/01 12:46:23;;;;;;;1.90;1.80;;;;;;;;;;4935133;28;20394;-77
2023/07/01 12:48:49;;;;;;;4.03;2.22;;;;;;;;;;4932633;28;20040;-77
2023/07/01 12:51:14;;;;;;;3.08;2.00;;;;;;;;;;4931599;29;20117;-77
2023/07/01 12:53:39;;;;;;;2.15;1.98;;;;;;;;;;4913488;29;20032;-77
2023/07/01 12:56:05;;;;;;;2.75;2.17;;;;;;;;;;4915273;29;20052;-77
2023/07/01 12:58:30;;;;;;;2.33;1.80;;;;;;;;;;4914296;29;20044;-77
2023/07/01 13:00:56;;;;;;;2.25;2.00;;;;;;;;;;4919733;29;20044;-78
2023/07/01 13:03:22;;;;;;;1.88;1.77;;;;;;;;;;4930360;28;20142;-76
2023/07/01 13:05:48;;;;;;;2.38;2.00;;;;;;;;;;4913799;29;20047;-77
2023/07/01 13:08:13;;;;;;;2.55;2.05;;;;;;;;;;4909852;28;20249;-77
2023/07/01 13:10:42;;;;;;;2.30;1.83;;;;;;;;;;4924622;29;20032;-77
2023/07/01 13:13:08;;;;;;;3.30;1.92;;;;;;;;;;4922346;29;20518;-77
2023/07/01 13:15:35;;;;;;;1.73;1.63;;;;;;;;;;4910172;29;20118;-77
2023/07/01 13:18:04;;;;;;;1.80;1.70;;;;;;;;;;4937126;29;20367;-77
2023/07/01 13:20:29;;;;;;;3.13;1.90;;;;;;;;;;4912430;29;20399;-76
2023/07/01 13:22:56;;;;;;;1.65;1.55;;;;;;;;;;4910838;29;20071;-77
2023/07/01 13:25:23;;;;;;;1.52;1.42;;;;;;;;;;4911118;29;20511;-77
2023/07/01 13:27:49;;;;;;;2.17;1.85;;;;;;;;;;4915607;29;20040;-77
2023/07/01 13:30:47;;;;;;;1.60;1.50;;;;;;;;;;4906293;29;20040;-76
2023/07/01 13:33:23;;;;;;;2.05;1.80;;;;;;;;;;4908708;29;20067;-76
2023/07/01 13:35:48;;;;;;;1.60;1.50;;;;;;;;;;4912543;29;20487;-75
2023/07/01 13:38:13;;;;;;;1.73;1.63;;;;;;;;;;4910050;29;20035;-76
2023/07/01 13:40:43;;;;;;;1.80;1.70;;;;;;;;;;4916808;29;20404;-77
2023/07/01 13:43:19;;;;;;;1.83;1.65;;;;;;;;;;4928816;29;20119;-76
2023/07/01 13:45:45;;;;;;;1.95;1.70;;;;;;;;;;4911833;29;20060;-78
2023/07/01 13:48:25;;;;;;;3.92;1.77;;;;;;;;;;4907693;29;20032;-76
2023/07/01 13:50:51;;;;;;;2.05;1.85;;;;;;;;;;4913646;29;20028;-75
2023/07/01 13:53:19;;;;;;;1.75;1.65;;;;;;;;;;4909476;29;20059;-78
2023/07/01 13:55:46;;;;;;;2.15;1.63;;;;;;;;;;4912977;29;20048;-78
2023/07/01 13:58:11;;;;;;;2.53;2.25;;;;;;;;;;4917248;29;20403;-76
2023/07/01 14:00:41;;;;;;;2.83;1.60;;;;;;;;;;4915487;29;20036;-76
2023/07/01 14:03:21;;;;;;;1.92;1.70;;;;;;;;;;4913924;29;20380;-78
2023/07/01 14:05:48;;;;;;;2.65;1.90;;;;;;;;;;4913017;29;20024;-77
2023/07/01 14:08:14;;;;;;;2.00;1.90;;;;;;;;;;4945681;28;20498;-77
2023/07/01 14:10:40;;;;;;;4.55;1.95;;;;;;;;;;4932776;28;20032;-76
2023/07/01 14:13:09;;;;;;;2.75;1.90;;;;;;;;;;4924940;28;20043;-78
2023/07/01 14:15:37;;;;;;;5.22;1.80;;;;;;;;;;4916002;28;20044;-78
2023/07/01 14:18:20;;;;;;;1.92;1.67;;;;;;;;;;4914503;29;20569;-78
2023/07/01 14:20:53;;;;;;;2.15;1.77;;;;;;;;;;4915931;29;20563;-78
2023/07/01 14:23:43;;;;;;;2.05;1.95;;;;;;;;;;4935224;29;20075;-79
2023/07/01 14:26:14;;;;;;;2.30;1.80;;;;;;;;;;4931594;29;20066;-78
2023/07/01 14:28:41;;;;;;;2.03;1.92;;;;;;;;;;4922524;28;20032;-79
2023/07/01 14:31:13;;;;;;;2.22;2.08;;;;;;;;;;4925724;29;20139;-78
2023/07/01 14:33:55;;;;;;;2.40;2.20;;;;;;;;;;4936087;29;20036;-79
2023/07/01 14:36:31;;;;;;;2.20;2.00;;;;;;;;;;4928137;29;20032;-78
2023/07/01 14:38:58;;;;;;;4.70;2.40;;;;;;;;;;4930326;29;20046;-78
2023/07/01 14:41:30;;;;;;;6.15;3.22;;;;;;;;;;4939704;29;20506;-78